createdAt,value
2023-03-21T00:00:30.854Z,101512.41
2023-03-21T00:02:58.104Z,101511.53
2023-03-21T00:05:25.280Z,101505.34
2023-03-21T00:07:52.851Z,101500.94
2023-03-21T00:10:33.095Z,101498.28
2023-03-21T00:13:06.433Z,101497.44
2023-03-21T00:15:44.136Z,101493.91
2023-03-21T00:18:18.958Z,101481.63
2023-03-21T00:21:12.674Z,101487.75
2023-03-21T00:23:45.014Z,101482.50
2023-03-21T00:26:12.712Z,101485.13
2023-03-21T00:28:44.090Z,101478.09
2023-03-21T00:31:11.459Z,101476.34
2023-03-21T00:33:46.450Z,101470.22
2023-03-21T00:36:25.878Z,101469.34
2023-03-21T00:38:54.204Z,101470.22
2023-03-21T00:41:35.003Z,101464.94
2023-03-21T00:44:08.186Z,101457.06
2023-03-21T00:46:45.586Z,101458.81
2023-03-21T00:49:16.628Z,101450.94
2023-03-21T00:51:44.579Z,101449.19
2023-03-21T00:54:13.066Z,101448.34
2023-03-21T00:56:40.235Z,101445.72
2023-03-21T00:59:07.238Z,101442.19
2023-03-21T01:01:34.678Z,101432.53
2023-03-21T01:04:13.642Z,101434.31
2023-03-21T01:06:43.720Z,101427.28
2023-03-21T01:09:22.002Z,101423.72
2023-03-21T01:11:50.587Z,101424.59
2023-03-21T01:14:23.324Z,101419.31
2023-03-21T01:16:54.213Z,101420.19
2023-03-21T01:19:50.722Z,101423.72
2023-03-21T01:22:16.547Z,101417.56
2023-03-21T01:24:52.935Z,101414.94
2023-03-21T01:27:22.492Z,101410.56
2023-03-21T01:29:49.505Z,101403.53
2023-03-21T01:32:16.800Z,101404.41
2023-03-21T01:34:43.815Z,101401.78
2023-03-21T01:37:10.861Z,101395.63
2023-03-21T01:39:37.979Z,101397.41
2023-03-21T01:42:05.179Z,101395.69
2023-03-21T01:44:32.412Z,101393.88
2023-03-21T01:47:15.430Z,101391.25
2023-03-21T01:49:47.932Z,101392.13
2023-03-21T01:52:35.470Z,101391.25
2023-03-21T01:55:11.763Z,101390.38
2023-03-21T01:58:02.105Z,101385.97
2023-03-21T02:00:32.808Z,101376.31
2023-03-21T02:03:12.522Z,101381.56
2023-03-21T02:06:09.804Z,101374.56
2023-03-21T02:08:39.848Z,101371.94
2023-03-21T02:11:10.196Z,101371.03
2023-03-21T02:13:37.694Z,101364.91
2023-03-21T02:16:44.713Z,101364.03
2023-03-21T02:19:32.873Z,101362.22
2023-03-21T02:22:32.529Z,101359.59
2023-03-21T02:25:47.875Z,101351.69
2023-03-21T02:28:45.265Z,101342.03
2023-03-21T02:31:28.577Z,101346.38
2023-03-21T02:34:17.003Z,101347.25
2023-03-21T02:37:03.000Z,101341.09
2023-03-21T02:40:12.476Z,101328.81
2023-03-21T02:43:22.940Z,101326.16
2023-03-21T02:46:19.332Z,101327.91
2023-03-21T02:48:59.047Z,101334.91
2023-03-21T02:51:29.090Z,101334.03
2023-03-21T02:54:26.418Z,101329.63
2023-03-21T02:56:56.119Z,101329.63
2023-03-21T02:59:25.382Z,101325.22
2023-03-21T03:01:53.663Z,101315.53
2023-03-21T03:04:28.626Z,101324.31
2023-03-21T03:06:58.737Z,101321.66
2023-03-21T03:10:03.743Z,101324.28
2023-03-21T03:12:56.512Z,101318.09
2023-03-21T03:15:35.861Z,101311.03
2023-03-21T03:18:29.504Z,101316.25
2023-03-21T03:21:08.564Z,101311.88
2023-03-21T03:23:50.807Z,101307.47
2023-03-21T03:26:44.676Z,101301.28
2023-03-21T03:29:17.514Z,101305.63
2023-03-21T03:32:00.099Z,101295.94
2023-03-21T03:34:39.548Z,101293.31
2023-03-21T03:37:11.674Z,101290.69
2023-03-21T03:40:10.958Z,101295.06
2023-03-21T03:42:53.616Z,101298.56
2023-03-21T03:45:26.570Z,101291.56
2023-03-21T03:48:25.764Z,101288.94
2023-03-21T03:51:02.879Z,101294.19
2023-03-21T03:53:39.335Z,101288.94
2023-03-21T03:56:11.600Z,101288.94
2023-03-21T03:58:45.626Z,101288.03
2023-03-21T04:01:14.143Z,101288.03
2023-03-21T04:03:50.647Z,101290.69
2023-03-21T04:06:22.202Z,101284.56
2023-03-21T04:08:51.037Z,101288.06
2023-03-21T04:11:21.288Z,101281.03
2023-03-21T04:13:48.654Z,101279.28
2023-03-21T04:16:15.922Z,101281.91
2023-03-21T04:18:43.058Z,101269.63
2023-03-21T04:21:15.558Z,101273.16
2023-03-21T04:23:42.911Z,101277.53
2023-03-21T04:26:11.380Z,101270.53
2023-03-21T04:28:39.814Z,101266.13
2023-03-21T04:31:24.079Z,101263.50
2023-03-21T04:33:52.078Z,101264.38
2023-03-21T04:36:30.701Z,101262.63
2023-03-21T04:39:01.666Z,101251.22
2023-03-21T04:41:29.715Z,101260.88
2023-03-21T04:43:56.845Z,101255.63
2023-03-21T04:46:24.685Z,101253.84
2023-03-21T04:48:51.749Z,101252.97
2023-03-21T04:51:18.931Z,101245.97
2023-03-21T04:53:49.244Z,101238.91
2023-03-21T04:56:16.729Z,101234.50
2023-03-21T04:58:44.129Z,101235.38
2023-03-21T05:01:14.709Z,101233.63
2023-03-21T05:03:42.892Z,101234.50
2023-03-21T05:06:10.854Z,101233.66
2023-03-21T05:08:37.992Z,101239.81
2023-03-21T05:11:06.048Z,101238.06
2023-03-21T05:13:33.225Z,101226.69
2023-03-21T05:16:00.392Z,101226.75
2023-03-21T05:18:27.404Z,101232.88
2023-03-21T05:20:55.378Z,101239.03
2023-03-21T05:23:23.991Z,101232.88
2023-03-21T05:25:51.631Z,101232.91
2023-03-21T05:28:18.731Z,101229.38
2023-03-21T05:30:47.131Z,101227.63
2023-03-21T05:33:14.527Z,101224.16
2023-03-21T05:35:41.671Z,101232.06
2023-03-21T05:38:09.277Z,101224.19
2023-03-21T05:40:36.368Z,101224.19
2023-03-21T05:43:03.473Z,101221.56
2023-03-21T05:45:31.014Z,101219.81
2023-03-21T05:47:58.111Z,101227.75
2023-03-21T05:50:25.478Z,101221.59
2023-03-21T05:52:52.708Z,101218.97
2023-03-21T05:55:22.420Z,101221.63
2023-03-21T05:57:50.055Z,101221.66
2023-03-21T06:00:18.197Z,101219.03
2023-03-21T06:02:45.894Z,101225.19
2023-03-21T06:05:12.996Z,101230.44
2023-03-21T06:07:40.260Z,101219.97
2023-03-21T06:10:08.469Z,101229.63
2023-03-21T06:12:35.607Z,101223.50
2023-03-21T06:15:05.548Z,101227.00
2023-03-21T06:17:33.059Z,101231.41
2023-03-21T06:20:01.210Z,101226.16
2023-03-21T06:22:29.022Z,101234.06
2023-03-21T06:24:55.993Z,101232.31
2023-03-21T06:27:23.541Z,101234.06
2023-03-21T06:29:50.591Z,101229.72
2023-03-21T06:32:17.933Z,101229.72
2023-03-21T06:34:45.200Z,101235.00
2023-03-21T06:37:12.230Z,101236.78
2023-03-21T06:39:39.380Z,101238.53
2023-03-21T06:42:06.672Z,101235.91
2023-03-21T06:44:33.764Z,101238.56
2023-03-21T06:47:01.369Z,101238.56
2023-03-21T06:49:28.502Z,101246.50
2023-03-21T06:51:55.773Z,101239.47
2023-03-21T06:54:22.850Z,101237.72
2023-03-21T06:56:50.281Z,101238.59
2023-03-21T06:59:17.770Z,101241.28
2023-03-21T07:01:44.750Z,101243.03
2023-03-21T07:04:12.301Z,101247.41
2023-03-21T07:06:39.456Z,101243.94
2023-03-21T07:09:07.207Z,101245.69
2023-03-21T07:11:37.162Z,101251.88
2023-03-21T07:14:05.480Z,101251.00
2023-03-21T07:16:32.567Z,101252.75
2023-03-21T07:18:59.874Z,101253.66
2023-03-21T07:21:27.015Z,101258.03
2023-03-21T07:23:54.053Z,101258.03
2023-03-21T07:26:21.166Z,101260.66
2023-03-21T07:28:48.308Z,101266.81
2023-03-21T07:31:17.737Z,101265.06
2023-03-21T07:33:44.928Z,101269.41
2023-03-21T07:36:16.415Z,101272.91
2023-03-21T07:38:45.442Z,101266.81
2023-03-21T07:41:13.660Z,101273.84
2023-03-21T07:43:40.916Z,101265.06
2023-03-21T07:46:08.470Z,101265.94
2023-03-21T07:48:35.718Z,101267.75
2023-03-21T07:51:02.867Z,101259.84
2023-03-21T07:53:30.181Z,101259.00
2023-03-21T07:55:57.379Z,101256.41
2023-03-21T07:58:26.365Z,101254.69
2023-03-21T08:00:55.799Z,101245.91
2023-03-21T08:03:24.050Z,101236.25
2023-03-21T08:05:51.483Z,101234.44
2023-03-21T08:08:18.612Z,101227.44
2023-03-21T08:10:45.915Z,101220.44
2023-03-21T08:13:13.897Z,101218.63
2023-03-21T08:15:42.562Z,101223.91
2023-03-21T08:18:11.542Z,101216.84
2023-03-21T08:20:38.838Z,101215.94
2023-03-21T08:23:06.056Z,101209.78
2023-03-21T08:25:33.331Z,101209.75
2023-03-21T08:28:00.929Z,101199.22
2023-03-21T08:30:29.763Z,101198.34
2023-03-21T08:33:01.139Z,101200.19
2023-03-21T08:35:29.513Z,101192.28
2023-03-21T08:37:57.357Z,101187.03
2023-03-21T08:40:24.627Z,101187.94
2023-03-21T08:42:54.928Z,101185.31
2023-03-21T08:45:22.984Z,101181.81
2023-03-21T08:47:50.352Z,101194.09
2023-03-21T08:50:21.496Z,101183.56
2023-03-21T08:52:49.375Z,101200.25
2023-03-21T08:55:18.162Z,101197.63
2023-03-21T08:57:45.926Z,101184.47
2023-03-21T09:00:18.491Z,101185.34
2023-03-21T09:02:48.674Z,101189.72
2023-03-21T09:05:16.971Z,101185.31
2023-03-21T09:07:45.772Z,101182.69
2023-03-21T09:10:23.141Z,101183.50
2023-03-21T09:12:52.977Z,101177.34
2023-03-21T09:15:22.140Z,101178.22
2023-03-21T09:17:52.956Z,101179.13
2023-03-21T09:20:26.521Z,101172.94
2023-03-21T09:22:54.349Z,101175.59
2023-03-21T09:25:21.637Z,101165.91
2023-03-21T09:27:49.178Z,101167.63
2023-03-21T09:30:19.834Z,101166.75
2023-03-21T09:32:49.526Z,101165.81
2023-03-21T09:35:18.931Z,101172.81
2023-03-21T09:37:50.139Z,101170.16
2023-03-21T09:40:30.770Z,101161.28
2023-03-21T09:43:10.807Z,101167.38
2023-03-21T09:46:04.195Z,101158.50
2023-03-21T09:48:57.734Z,101156.66
2023-03-21T09:51:31.628Z,101154.78
2023-03-21T09:54:03.982Z,101144.13
2023-03-21T09:56:31.233Z,101143.22
2023-03-21T09:59:00.723Z,101144.88
2023-03-21T10:01:34.425Z,101138.75
2023-03-21T10:04:12.904Z,101135.25
2023-03-21T10:06:43.027Z,101129.13
2023-03-21T10:09:24.501Z,101130.00
2023-03-21T10:12:02.419Z,101128.22
2023-03-21T10:14:42.302Z,101122.03
2023-03-21T10:17:43.756Z,101121.09
2023-03-21T10:20:11.995Z,101123.69
2023-03-21T10:22:39.926Z,101124.47
2023-03-21T10:25:11.090Z,101123.53
2023-03-21T10:27:38.466Z,101123.47
2023-03-21T10:30:08.741Z,101118.09
2023-03-21T10:32:35.943Z,101123.16
2023-03-21T10:35:05.080Z,101114.00
2023-03-21T10:37:32.672Z,101107.50
2023-03-21T10:39:59.889Z,101112.56
2023-03-21T10:42:31.527Z,101113.06
2023-03-21T10:44:59.025Z,101110.97
2023-03-21T10:47:33.951Z,101115.09
2023-03-21T10:50:13.875Z,101110.53
2023-03-21T10:52:56.098Z,101119.25
2023-03-21T10:55:34.398Z,101122.59
2023-03-21T10:58:19.065Z,101111.84
2023-03-21T11:00:47.855Z,101118.88
2023-03-21T11:03:44.944Z,101105.41
2023-03-21T11:06:23.325Z,101108.84
2023-03-21T11:09:13.938Z,101111.41
2023-03-21T11:11:54.948Z,101113.16
2023-03-21T11:14:51.159Z,101116.72
2023-03-21T11:17:18.120Z,101119.56
2023-03-21T11:19:58.468Z,101109.09
2023-03-21T11:22:30.925Z,101105.69
2023-03-21T11:25:01.789Z,101112.88
2023-03-21T11:27:30.295Z,101119.94
2023-03-21T11:30:01.005Z,101120.81
2023-03-21T11:32:36.250Z,101119.84
2023-03-21T11:35:09.419Z,101113.41
2023-03-21T11:37:47.995Z,101108.66
2023-03-21T11:40:30.046Z,101108.31
2023-03-21T11:43:18.151Z,101106.06
2023-03-21T11:46:08.175Z,101111.97
2023-03-21T11:48:48.980Z,101114.69
2023-03-21T11:51:50.646Z,101117.94
2023-03-21T11:54:33.965Z,101117.75
2023-03-21T11:57:31.428Z,101119.25
2023-03-21T12:00:29.453Z,101104.72
2023-03-21T12:03:22.334Z,101104.47
2023-03-21T12:06:11.342Z,101100.56
2023-03-21T12:09:25.712Z,101106.50
2023-03-21T12:12:14.544Z,101096.44
2023-03-21T12:15:06.454Z,101086.50
2023-03-21T12:18:06.618Z,101086.34
2023-03-21T12:20:40.578Z,101078.72
2023-03-21T12:23:13.720Z,101065.84
2023-03-21T12:26:03.456Z,101058.53
2023-03-21T12:28:43.322Z,101062.78
2023-03-21T12:32:14.810Z,101063.25
2023-03-21T12:35:41.908Z,101066.28
2023-03-21T12:38:33.881Z,101051.97
2023-03-21T12:41:10.499Z,101053.25
2023-03-21T12:44:11.333Z,101055.47
2023-03-21T12:47:02.755Z,101050.19
2023-03-21T12:49:45.786Z,101046.38
2023-03-21T12:52:16.595Z,101042.63
2023-03-21T12:55:15.165Z,101049.13
2023-03-21T12:58:08.261Z,101040.25
2023-03-21T13:00:44.729Z,101041.56
2023-03-21T13:03:30.641Z,101039.56
2023-03-21T13:06:07.489Z,101035.50
2023-03-21T13:09:36.777Z,101031.00
2023-03-21T13:12:14.155Z,101025.06
2023-03-21T13:15:12.535Z,101030.34
2023-03-21T13:17:51.599Z,101025.59
2023-03-21T13:20:56.017Z,101024.78
2023-03-21T13:23:33.704Z,101023.25
2023-03-21T13:26:01.067Z,101021.28
2023-03-21T13:28:34.429Z,101017.28
2023-03-21T13:31:26.321Z,101014.63
2023-03-21T13:33:59.889Z,101007.34
2023-03-21T13:36:31.854Z,101003.38
2023-03-21T13:39:06.144Z,101001.59
2023-03-21T13:41:43.597Z,101003.59
2023-03-21T13:44:25.867Z,100994.41
2023-03-21T13:47:05.038Z,100997.50
2023-03-21T13:49:36.862Z,100997.13
2023-03-21T13:52:28.219Z,100991.28
2023-03-21T13:54:57.447Z,100979.59
2023-03-21T13:57:27.225Z,100986.22
2023-03-21T14:00:30.681Z,100978.97
2023-03-21T14:03:06.381Z,100981.41
2023-03-21T14:05:35.404Z,100984.69
2023-03-21T14:08:15.776Z,100974.78
2023-03-21T14:10:52.586Z,100981.25
2023-03-21T14:13:24.714Z,100968.47
2023-03-21T14:16:07.680Z,100960.31
2023-03-21T14:18:55.259Z,100949.81
2023-03-21T14:21:28.294Z,100961.41
2023-03-21T14:24:07.248Z,100965.00
2023-03-21T14:26:47.569Z,100963.97
2023-03-21T14:29:34.391Z,100966.41
2023-03-21T14:32:03.590Z,100964.78
2023-03-21T14:34:35.162Z,100958.06
2023-03-21T14:37:02.276Z,100953.00
2023-03-21T14:39:33.710Z,100962.06
2023-03-21T14:42:15.068Z,100946.13
2023-03-21T14:44:56.915Z,100951.28
2023-03-21T14:47:30.056Z,100953.81
2023-03-21T14:49:58.356Z,100952.13
2023-03-21T14:52:33.432Z,100942.34
2023-03-21T14:55:03.171Z,100956.19
2023-03-21T14:57:33.441Z,100961.53
2023-03-21T15:00:12.670Z,100957.13
2023-03-21T15:02:42.004Z,100949.84
2023-03-21T15:05:42.689Z,100952.91
2023-03-21T15:08:19.756Z,100964.59
2023-03-21T15:11:07.138Z,100956.63
2023-03-21T15:13:40.247Z,100957.00
2023-03-21T15:16:09.759Z,100960.88
2023-03-21T15:18:41.396Z,100958.44
2023-03-21T15:21:30.351Z,100943.50
2023-03-21T15:24:05.518Z,100953.25
2023-03-21T15:26:32.734Z,100948.91
2023-03-21T15:29:00.804Z,100939.78
2023-03-21T15:31:37.076Z,100944.13
2023-03-21T15:34:04.960Z,100947.22
2023-03-21T15:36:44.115Z,100928.97
2023-03-21T15:39:17.165Z,100930.50
2023-03-21T15:42:02.140Z,100929.50
2023-03-21T15:44:30.187Z,100927.50
2023-03-21T15:46:57.958Z,100921.09
2023-03-21T15:49:34.227Z,100920.03
2023-03-21T15:52:07.840Z,100925.06
2023-03-21T15:54:48.077Z,100931.75
2023-03-21T15:57:34.133Z,100924.53
2023-03-21T16:00:12.020Z,100931.50
2023-03-21T16:02:42.579Z,100930.94
2023-03-21T16:05:34.022Z,100928.91
2023-03-21T16:08:27.413Z,100932.44
2023-03-21T16:10:54.514Z,100931.41
2023-03-21T16:13:21.565Z,100932.75
2023-03-21T16:15:48.643Z,100934.91
2023-03-21T16:18:18.280Z,100937.13
2023-03-21T16:20:47.166Z,100940.16
2023-03-21T16:23:16.134Z,100946.44
2023-03-21T16:25:47.146Z,100945.69
2023-03-21T16:28:17.768Z,100941.50
2023-03-21T16:30:45.546Z,100947.81
2023-03-21T16:33:13.933Z,100950.69
2023-03-21T16:35:41.399Z,100952.59
2023-03-21T16:38:11.950Z,100961.34
2023-03-21T16:40:42.374Z,100963.28
2023-03-21T16:43:11.466Z,100966.03
2023-03-21T16:45:38.680Z,100959.06
2023-03-21T16:48:08.889Z,100965.47
2023-03-21T16:50:42.657Z,100965.69
2023-03-21T16:53:10.298Z,100962.50
2023-03-21T16:55:39.039Z,100968.84
2023-03-21T16:58:06.841Z,100960.09
2023-03-21T17:00:34.215Z,100958.50
2023-03-21T17:03:12.331Z,100960.44
2023-03-21T17:05:39.441Z,100964.09
2023-03-21T17:08:06.646Z,100973.00
2023-03-21T17:10:34.014Z,100956.28
2023-03-21T17:13:01.062Z,100971.38
2023-03-21T17:15:29.299Z,100965.28
2023-03-21T17:17:56.438Z,100970.66
2023-03-21T17:20:30.861Z,100962.78
2023-03-21T17:22:58.139Z,100961.06
2023-03-21T17:25:25.469Z,100961.16
2023-03-21T17:27:54.118Z,100953.28
2023-03-21T17:30:32.174Z,100950.69
2023-03-21T17:32:59.921Z,100946.34
2023-03-21T17:35:28.990Z,100941.09
2023-03-21T17:37:58.491Z,100952.56
2023-03-21T17:40:29.945Z,100953.50
2023-03-21T17:42:58.602Z,100949.13
2023-03-21T17:45:26.013Z,100953.63
2023-03-21T17:47:54.901Z,100955.38
2023-03-21T17:50:26.396Z,100951.00
2023-03-21T17:52:56.476Z,100943.97
2023-03-21T17:55:23.930Z,100933.44
2023-03-21T17:57:51.227Z,100941.38
2023-03-21T18:00:23.293Z,100938.75
2023-03-21T18:02:51.779Z,100938.75
2023-03-21T18:05:21.703Z,100934.38
2023-03-21T18:10:37.397Z,100941.53
2023-03-21T18:13:04.694Z,100943.34
2023-03-21T18:15:32.100Z,100937.19
2023-03-21T18:17:59.584Z,100931.03
2023-03-21T18:20:49.797Z,100937.22
2023-03-21T18:23:18.866Z,100946.97
2023-03-21T18:25:46.022Z,100947.94
2023-03-21T18:28:13.838Z,100956.75
2023-03-21T18:31:07.065Z,100961.19
2023-03-21T18:33:30.193Z,100950.66
2023-03-21T18:35:59.346Z,100945.31
2023-03-21T18:38:28.077Z,100941.78
2023-03-21T18:40:56.325Z,100944.44
2023-03-21T18:46:11.804Z,100943.56
2023-03-21T18:48:39.330Z,100937.44
2023-03-21T18:51:07.167Z,100941.03
2023-03-21T18:53:34.212Z,100942.81
2023-03-21T18:56:02.002Z,100939.31
2023-03-21T18:58:29.463Z,100930.59
2023-03-21T19:00:59.714Z,100938.50
2023-03-21T19:03:36.712Z,100934.97
2023-03-21T19:06:06.477Z,100940.28
2023-03-21T19:08:41.796Z,100933.28
2023-03-21T19:11:10.101Z,100933.28
2023-03-21T19:13:37.201Z,100927.97
2023-03-21T19:16:04.546Z,100926.25
2023-03-21T19:18:54.101Z,100921.84
2023-03-21T19:21:21.561Z,100921.00
2023-03-21T19:26:36.432Z,100921.00
2023-03-21T19:29:03.904Z,100915.72
2023-03-21T19:31:31.431Z,100917.50
2023-03-21T19:33:59.227Z,100919.22
2023-03-21T19:36:26.689Z,100917.47
2023-03-21T19:38:53.948Z,100917.47
2023-03-21T19:41:21.188Z,100919.25
2023-03-21T19:43:54.541Z,100913.16
2023-03-21T19:46:25.172Z,100911.41
2023-03-21T19:48:57.165Z,100921.97
2023-03-21T19:51:29.287Z,100923.72
2023-03-21T19:54:00.150Z,100922.84
2023-03-21T19:56:27.967Z,100917.56
2023-03-21T19:58:58.582Z,100914.91
2023-03-21T20:01:26.353Z,100914.97
2023-03-21T20:03:53.707Z,100918.47
2023-03-21T20:06:25.019Z,100914.06
2023-03-21T20:11:40.954Z,100913.19
2023-03-21T20:14:08.722Z,100910.56
2023-03-21T20:16:37.098Z,100916.69
2023-03-21T20:19:06.236Z,100910.53
2023-03-21T20:21:44.504Z,100917.56
2023-03-21T20:24:17.052Z,100907.91
2023-03-21T20:26:45.892Z,100913.09
2023-03-21T20:32:02.641Z,100920.13
2023-03-21T20:34:30.620Z,100914.00
2023-03-21T20:36:58.632Z,100910.53
2023-03-21T20:39:28.022Z,100919.34
2023-03-21T20:41:58.922Z,100918.44
2023-03-21T20:44:52.268Z,100916.75
2023-03-21T20:47:15.440Z,100918.53
2023-03-21T20:49:42.774Z,100912.41
2023-03-21T20:54:57.533Z,100912.50
2023-03-21T20:57:27.168Z,100916.06
2023-03-21T20:59:55.363Z,100912.56
2023-03-21T21:02:23.801Z,100916.97
2023-03-21T21:05:23.591Z,100910.81
2023-03-21T21:07:46.044Z,100914.38
2023-03-21T21:10:16.859Z,100925.81
2023-03-21T21:12:45.343Z,100922.28
2023-03-21T21:15:17.027Z,100919.66
2023-03-21T21:20:33.836Z,100916.16
2023-03-21T21:23:01.252Z,100911.78
2023-03-21T21:25:32.109Z,100909.16
2023-03-21T21:28:02.025Z,100909.13
2023-03-21T21:30:32.808Z,100903.03
2023-03-21T21:33:00.953Z,100909.19
2023-03-21T21:35:28.749Z,100910.97
2023-03-21T21:37:56.015Z,100895.16
2023-03-21T21:40:23.559Z,100901.31
2023-03-21T21:42:51.398Z,100901.34
2023-03-21T21:45:20.270Z,100901.34
2023-03-21T21:47:47.657Z,100898.72
2023-03-21T21:50:14.998Z,100896.09
2023-03-21T21:52:43.945Z,100896.09
2023-03-21T21:55:11.294Z,100897.88
2023-03-21T21:57:39.840Z,100897.00
2023-03-21T22:00:12.993Z,100903.19
2023-03-21T22:02:43.026Z,100894.38
2023-03-21T22:05:10.771Z,100891.78
2023-03-21T22:07:39.466Z,100892.66
2023-03-21T22:10:07.182Z,100889.19
2023-03-21T22:12:34.853Z,100889.19
2023-03-21T22:15:02.990Z,100890.97
2023-03-21T22:17:30.105Z,100890.09
2023-03-21T22:20:05.760Z,100890.13
2023-03-21T22:22:35.318Z,100891.88
2023-03-21T22:25:04.950Z,100884.00
2023-03-21T22:27:32.385Z,100877.88
2023-03-21T22:30:04.907Z,100870.84
2023-03-21T22:32:36.934Z,100882.28
2023-03-21T22:35:06.158Z,100871.75
2023-03-21T22:37:36.576Z,100873.50
2023-03-21T22:40:08.105Z,100874.38
2023-03-21T22:42:36.619Z,100867.34
2023-03-21T22:45:06.183Z,100866.47
2023-03-21T22:47:34.086Z,100872.59
2023-03-21T22:50:01.489Z,100872.63
2023-03-21T22:52:28.464Z,100868.22
2023-03-21T22:54:55.532Z,100865.59
2023-03-21T22:57:22.715Z,100858.59
2023-03-21T22:59:49.928Z,100863.84
2023-03-21T23:02:17.103Z,100866.50
2023-03-21T23:04:44.728Z,100863.88
2023-03-21T23:07:11.812Z,100855.97
2023-03-21T23:09:38.996Z,100854.22
2023-03-21T23:12:06.356Z,100851.59
2023-03-21T23:14:33.351Z,100855.97
2023-03-21T23:17:02.642Z,100855.09
2023-03-21T23:19:30.633Z,100851.56
2023-03-21T23:21:58.015Z,100850.69
2023-03-21T23:24:25.636Z,100849.81
2023-03-21T23:26:53.253Z,100846.31
2023-03-21T23:29:20.363Z,100843.66
2023-03-21T23:31:47.449Z,100843.66
2023-03-21T23:34:15.012Z,100842.78
2023-03-21T23:36:42.340Z,100837.53
2023-03-21T23:39:10.446Z,100829.66
2023-03-21T23:41:37.675Z,100826.13
2023-03-21T23:44:05.378Z,100829.66
2023-03-21T23:46:32.744Z,100832.31
2023-03-21T23:48:59.878Z,100827.03
2023-03-21T23:51:27.019Z,100822.66
2023-03-21T23:53:56.892Z,100817.38
2023-03-21T23:56:26.083Z,100815.63
2023-03-21T23:58:53.756Z,100812.97
